Time;durP1;ratioP1;P1;durP2;ratioP2;P2;SDS_P1;SDS_P2;PMS_P1;PMS_P2;Temp;Humidity;BMP_temperature;BMP_pressure;BME280_temperature;BME280_humidity;BME280_pressure;Samples;Min_cycle;Max_cycle;Signal;HPM_P1;HPM_P2
2021/08/25 00:01:40;;;;;;;7.75;6.35;;;;;;;;;;5097983;28;20020;-65
2021/08/25 00:04:06;;;;;;;8.65;6.40;;;;;;;;;;5090850;28;20024;-65
2021/08/25 00:06:32;;;;;;;13.18;7.20;;;;;;;;;;5093188;28;20069;-65
2021/08/25 00:08:58;;;;;;;38.10;8.85;;;;;;;;;;5093182;28;20062;-65
2021/08/25 00:11:25;;;;;;;11.52;6.50;;;;;;;;;;5098282;28;20020;-65
2021/08/25 00:13:52;;;;;;;9.18;6.55;;;;;;;;;;5092625;28;20085;-65
2021/08/25 00:16:18;;;;;;;10.52;7.13;;;;;;;;;;5096224;28;20089;-65
2021/08/25 00:18:44;;;;;;;8.75;6.85;;;;;;;;;;5092048;28;20099;-66
2021/08/25 00:21:10;;;;;;;7.60;6.38;;;;;;;;;;5094290;28;20028;-65
2021/08/25 00:23:37;;;;;;;9.48;6.60;;;;;;;;;;5097485;28;20026;-65
2021/08/25 00:26:03;;;;;;;9.90;7.25;;;;;;;;;;5093978;28;20111;-66
2021/08/25 00:28:29;;;;;;;12.30;7.03;;;;;;;;;;5091689;28;20024;-65
2021/08/25 00:30:55;;;;;;;9.55;7.18;;;;;;;;;;5095409;28;20035;-65
2021/08/25 00:33:21;;;;;;;15.18;6.85;;;;;;;;;;5092268;28;20076;-65
2021/08/25 00:35:47;;;;;;;14.45;7.10;;;;;;;;;;5094645;28;20042;-65
2021/08/25 00:38:14;;;;;;;8.00;7.10;;;;;;;;;;5097205;28;20019;-65
2021/08/25 00:40:40;;;;;;;9.43;6.55;;;;;;;;;;5092998;28;20024;-65
2021/08/25 00:43:07;;;;;;;10.35;6.78;;;;;;;;;;5090301;28;20098;-65
2021/08/25 00:45:42;;;;;;;10.20;6.75;;;;;;;;;;5090764;28;20024;-65
2021/08/25 00:48:09;;;;;;;11.45;6.40;;;;;;;;;;5090640;28;20024;-66
2021/08/25 00:50:35;;;;;;;20.95;7.40;;;;;;;;;;5091655;28;20028;-65
2021/08/25 00:53:03;;;;;;;15.50;6.30;;;;;;;;;;5093817;28;20036;-65
2021/08/25 00:55:31;;;;;;;11.93;6.57;;;;;;;;;;5092464;28;20072;-65
2021/08/25 00:57:59;;;;;;;13.88;6.75;;;;;;;;;;5094928;28;20050;-65
2021/08/25 01:00:25;;;;;;;12.10;6.72;;;;;;;;;;5091538;28;20552;-65
2021/08/25 01:03:03;;;;;;;12.63;6.88;;;;;;;;;;5094555;28;20031;-65
2021/08/25 01:05:30;;;;;;;19.85;7.88;;;;;;;;;;5091960;28;20020;-65
2021/08/25 01:07:58;;;;;;;16.48;6.95;;;;;;;;;;5085793;28;20365;-66
2021/08/25 01:10:31;;;;;;;17.92;7.35;;;;;;;;;;5082606;28;20024;-65
2021/08/25 01:12:58;;;;;;;14.40;7.50;;;;;;;;;;5091384;28;20028;-65
2021/08/25 01:15:26;;;;;;;11.65;7.45;;;;;;;;;;5083181;28;20085;-65
2021/08/25 01:17:53;;;;;;;10.45;6.90;;;;;;;;;;5088542;28;20092;-65
2021/08/25 01:20:21;;;;;;;10.40;6.88;;;;;;;;;;5082395;28;20023;-65
2021/08/25 01:22:48;;;;;;;12.25;7.15;;;;;;;;;;5091058;28;20034;-65
2021/08/25 01:25:14;;;;;;;9.68;7.28;;;;;;;;;;5086969;28;20020;-65
2021/08/25 01:27:48;;;;;;;9.10;7.57;;;;;;;;;;5084588;28;20527;-65
2021/08/25 01:30:15;;;;;;;10.90;7.25;;;;;;;;;;5089624;28;20528;-65
2021/08/25 01:32:41;;;;;;;12.35;7.22;;;;;;;;;;5085811;28;20020;-65
2021/08/25 01:35:08;;;;;;;8.38;7.05;;;;;;;;;;5090433;28;20040;-65
2021/08/25 01:37:34;;;;;;;9.95;7.40;;;;;;;;;;5086505;28;20081;-65
2021/08/25 01:40:01;;;;;;;10.55;7.45;;;;;;;;;;5090572;28;20042;-65
2021/08/25 01:42:27;;;;;;;9.82;7.40;;;;;;;;;;5088998;28;20047;-65
2021/08/25 01:44:53;;;;;;;8.63;7.07;;;;;;;;;;5086881;28;20030;-65
2021/08/25 01:47:20;;;;;;;7.30;6.53;;;;;;;;;;5089701;28;20089;-65
2021/08/25 01:49:47;;;;;;;9.48;7.53;;;;;;;;;;5087185;28;20081;-65
2021/08/25 01:52:13;;;;;;;9.57;7.43;;;;;;;;;;5074426;28;20031;-65
2021/08/25 01:54:40;;;;;;;8.65;6.93;;;;;;;;;;5090096;28;20748;-65
2021/08/25 01:57:06;;;;;;;9.18;6.88;;;;;;;;;;5085198;28;20035;-65
2021/08/25 01:59:33;;;;;;;9.82;7.57;;;;;;;;;;5080733;28;20028;-65
2021/08/25 02:01:59;;;;;;;9.05;7.28;;;;;;;;;;5087583;28;20020;-65
2021/08/25 02:04:25;;;;;;;11.60;6.50;;;;;;;;;;5091121;28;20027;-65
2021/08/25 02:06:53;;;;;;;13.52;6.90;;;;;;;;;;5089981;28;20020;-65
2021/08/25 02:09:20;;;;;;;15.82;7.25;;;;;;;;;;5087429;28;20031;-66
2021/08/25 02:11:46;;;;;;;7.97;6.05;;;;;;;;;;5087762;28;20024;-66
2021/08/25 02:14:13;;;;;;;12.75;6.82;;;;;;;;;;5088610;28;20151;-66
2021/08/25 02:16:39;;;;;;;10.05;6.68;;;;;;;;;;5088609;28;20027;-66
2021/08/25 02:19:05;;;;;;;9.10;6.43;;;;;;;;;;5091120;28;20492;-66
2021/08/25 02:21:32;;;;;;;8.95;6.63;;;;;;;;;;5087549;28;20042;-66
2021/08/25 02:23:58;;;;;;;14.35;6.90;;;;;;;;;;5089499;28;20035;-66
2021/08/25 02:26:25;;;;;;;9.43;7.05;;;;;;;;;;5089173;28;20028;-66
2021/08/25 02:28:52;;;;;;;10.00;6.75;;;;;;;;;;5072721;28;20056;-66
2021/08/25 02:31:18;;;;;;;9.13;6.70;;;;;;;;;;5091823;28;20696;-65
2021/08/25 02:33:45;;;;;;;7.55;6.25;;;;;;;;;;5090011;28;20035;-66
2021/08/25 02:36:12;;;;;;;10.00;6.43;;;;;;;;;;5093070;28;20585;-65
2021/08/25 02:38:38;;;;;;;9.73;6.28;;;;;;;;;;5092484;28;20026;-65
2021/08/25 02:41:06;;;;;;;8.57;6.15;;;;;;;;;;5092354;28;20553;-64
2021/08/25 02:43:32;;;;;;;10.85;6.30;;;;;;;;;;5088061;28;20020;-65
2021/08/25 02:45:58;;;;;;;9.85;7.22;;;;;;;;;;5093897;28;20050;-65
2021/08/25 02:48:25;;;;;;;10.32;7.20;;;;;;;;;;5091449;28;20020;-65
2021/08/25 02:50:51;;;;;;;12.30;8.02;;;;;;;;;;5093248;28;20456;-65
2021/08/25 02:53:17;;;;;;;10.43;7.25;;;;;;;;;;5087084;28;20040;-65
2021/08/25 02:55:44;;;;;;;9.98;7.90;;;;;;;;;;5093599;28;20048;-65
2021/08/25 02:58:10;;;;;;;11.30;7.88;;;;;;;;;;5090728;28;20030;-65
2021/08/25 03:00:36;;;;;;;11.23;8.02;;;;;;;;;;5094874;28;20284;-65
2021/08/25 03:03:03;;;;;;;8.43;6.85;;;;;;;;;;5089526;28;20024;-65
2021/08/25 03:05:29;;;;;;;11.63;7.50;;;;;;;;;;5089768;28;20032;-65
2021/08/25 03:07:55;;;;;;;10.02;7.38;;;;;;;;;;5091005;28;20020;-65
2021/08/25 03:10:22;;;;;;;14.52;7.40;;;;;;;;;;5088561;28;20020;-65
2021/08/25 03:12:48;;;;;;;13.25;8.00;;;;;;;;;;5092022;28;20020;-65
2021/08/25 03:15:14;;;;;;;10.50;7.38;;;;;;;;;;5085366;28;20040;-65
2021/08/25 03:17:40;;;;;;;9.30;7.10;;;;;;;;;;5092833;28;20024;-66
2021/08/25 03:20:08;;;;;;;12.10;7.80;;;;;;;;;;5090128;28;20020;-66
2021/08/25 03:22:35;;;;;;;9.32;6.85;;;;;;;;;;5089793;28;20035;-65
2021/08/25 03:25:01;;;;;;;7.70;6.75;;;;;;;;;;5088838;28;20020;-65
2021/08/25 03:27:27;;;;;;;9.40;7.18;;;;;;;;;;5086936;28;20090;-66
2021/08/25 03:29:53;;;;;;;9.50;7.05;;;;;;;;;;5092208;28;20051;-66
2021/08/25 03:32:19;;;;;;;11.25;6.30;;;;;;;;;;5086290;28;20027;-66
2021/08/25 03:34:46;;;;;;;9.10;6.35;;;;;;;;;;5087987;28;20027;-66
2021/08/25 03:37:12;;;;;;;9.68;6.72;;;;;;;;;;5087888;28;20430;-66
2021/08/25 03:39:38;;;;;;;9.35;6.10;;;;;;;;;;5091328;28;20024;-66
2021/08/25 03:42:05;;;;;;;9.52;6.38;;;;;;;;;;5090882;28;20026;-65
2021/08/25 03:44:31;;;;;;;7.63;5.70;;;;;;;;;;5084965;28;20020;-66
2021/08/25 03:46:57;;;;;;;8.23;6.32;;;;;;;;;;5088669;28;20023;-66
2021/08/25 03:49:23;;;;;;;11.77;6.53;;;;;;;;;;5088026;28;20098;-66
2021/08/25 03:51:49;;;;;;;10.30;6.57;;;;;;;;;;5088604;28;20036;-65
2021/08/25 03:54:15;;;;;;;8.02;6.47;;;;;;;;;;5087906;28;20040;-66
2021/08/25 03:56:41;;;;;;;12.45;6.15;;;;;;;;;;5089370;28;20434;-65
2021/08/25 03:59:08;;;;;;;9.68;6.22;;;;;;;;;;5087442;28;20375;-66
2021/08/25 04:01:34;;;;;;;8.90;5.63;;;;;;;;;;5087133;28;20384;-65
2021/08/25 04:04:05;;;;;;;9.57;6.38;;;;;;;;;;5091346;28;20728;-66
2021/08/25 04:06:31;;;;;;;9.65;6.32;;;;;;;;;;5087515;28;20032;-65
2021/08/25 04:08:57;;;;;;;7.55;6.00;;;;;;;;;;5087750;28;20038;-67
2021/08/25 04:11:23;;;;;;;8.18;6.15;;;;;;;;;;5089710;28;20376;-65
2021/08/25 04:13:49;;;;;;;7.53;6.65;;;;;;;;;;5086629;28;20488;-66
2021/08/25 04:16:16;;;;;;;8.95;6.13;;;;;;;;;;5089318;28;20020;-65
2021/08/25 04:18:42;;;;;;;9.60;5.70;;;;;;;;;;5086108;28;20023;-65
2021/08/25 04:21:08;;;;;;;6.80;5.65;;;;;;;;;;5090824;28;20502;-69
2021/08/25 04:23:34;;;;;;;8.00;5.88;;;;;;;;;;5085760;28;20559;-66
2021/08/25 04:26:01;;;;;;;10.80;5.72;;;;;;;;;;5085672;28;20084;-66
2021/08/25 04:28:27;;;;;;;6.10;5.40;;;;;;;;;;5086984;28;20030;-65
2021/08/25 04:30:53;;;;;;;6.75;5.50;;;;;;;;;;5086519;28;20020;-65
2021/08/25 04:33:19;;;;;;;7.13;5.63;;;;;;;;;;5088181;28;20197;-66
2021/08/25 04:35:45;;;;;;;7.10;5.88;;;;;;;;;;5085950;28;20174;-65
2021/08/25 04:38:12;;;;;;;6.53;5.18;;;;;;;;;;5085545;28;20024;-65
2021/08/25 04:40:38;;;;;;;7.88;5.18;;;;;;;;;;5087967;28;20348;-66
2021/08/25 04:43:04;;;;;;;8.98;5.15;;;;;;;;;;5085187;28;20029;-66
2021/08/25 04:45:30;;;;;;;5.95;4.82;;;;;;;;;;5089028;28;20092;-66
2021/08/25 04:47:56;;;;;;;9.10;5.90;;;;;;;;;;5081793;28;20031;-65
2021/08/25 04:50:23;;;;;;;9.20;6.03;;;;;;;;;;5089361;28;20062;-65
2021/08/25 04:52:49;;;;;;;6.47;5.40;;;;;;;;;;5087279;28;20020;-65
2021/08/25 04:55:15;;;;;;;7.43;4.93;;;;;;;;;;5086293;28;20113;-66
2021/08/25 04:57:41;;;;;;;7.93;6.15;;;;;;;;;;5088220;28;20965;-65
2021/08/25 05:00:08;;;;;;;10.88;5.25;;;;;;;;;;5085752;28;20036;-66
2021/08/25 05:02:35;;;;;;;11.50;5.43;;;;;;;;;;5087344;28;20050;-66
2021/08/25 05:05:01;;;;;;;10.95;5.38;;;;;;;;;;5085889;28;20101;-66
2021/08/25 05:07:27;;;;;;;7.40;5.60;;;;;;;;;;5086996;28;20058;-66
2021/08/25 05:09:53;;;;;;;9.73;5.32;;;;;;;;;;5086450;28;20027;-66
2021/08/25 05:12:20;;;;;;;8.90;5.03;;;;;;;;;;5087516;28;20340;-65
2021/08/25 05:14:46;;;;;;;7.72;4.75;;;;;;;;;;5088553;28;20395;-65
2021/08/25 05:17:12;;;;;;;11.48;5.50;;;;;;;;;;5083514;28;20541;-66
2021/08/25 05:19:38;;;;;;;8.02;5.45;;;;;;;;;;5070666;28;20588;-66
2021/08/25 05:22:06;;;;;;;10.30;5.20;;;;;;;;;;5082591;28;20024;-67
2021/08/25 05:24:33;;;;;;;7.05;4.97;;;;;;;;;;5085951;28;20039;-67
2021/08/25 05:26:59;;;;;;;8.48;4.82;;;;;;;;;;5085638;28;20027;-66
2021/08/25 05:29:25;;;;;;;8.13;5.10;;;;;;;;;;5086440;28;20113;-66
2021/08/25 05:31:52;;;;;;;11.35;5.40;;;;;;;;;;5086562;28;20024;-66
2021/08/25 05:34:18;;;;;;;10.32;5.35;;;;;;;;;;5085577;28;20032;-66
2021/08/25 05:36:44;;;;;;;10.32;5.55;;;;;;;;;;5089968;28;20410;-66
2021/08/25 05:39:11;;;;;;;7.95;5.07;;;;;;;;;;5086216;28;20027;-69
2021/08/25 05:41:37;;;;;;;9.98;5.38;;;;;;;;;;5087215;28;20116;-69
2021/08/25 05:44:04;;;;;;;10.00;6.22;;;;;;;;;;5071793;28;20752;-69
2021/08/25 05:46:31;;;;;;;10.98;7.13;;;;;;;;;;5083183;28;20024;-67
2021/08/25 05:48:58;;;;;;;23.88;8.77;;;;;;;;;;5089110;28;20511;-68
2021/08/25 05:51:24;;;;;;;12.30;7.63;;;;;;;;;;5086313;28;20035;-67
2021/08/25 05:53:51;;;;;;;17.67;6.70;;;;;;;;;;5091811;28;20030;-66
2021/08/25 05:56:18;;;;;;;12.80;6.72;;;;;;;;;;5087568;28;20085;-67
2021/08/25 05:58:44;;;;;;;12.52;6.50;;;;;;;;;;5090208;28;20031;-69
2021/08/25 06:01:14;;;;;;;9.25;6.22;;;;;;;;;;5087461;28;20016;-67
2021/08/25 06:03:40;;;;;;;10.23;6.47;;;;;;;;;;5088781;28;20040;-67
2021/08/25 06:06:06;;;;;;;9.88;6.57;;;;;;;;;;5089157;28;20103;-67
2021/08/25 06:08:32;;;;;;;11.35;6.85;;;;;;;;;;5088622;28;20851;-67
2021/08/25 06:10:58;;;;;;;12.85;6.85;;;;;;;;;;5088985;28;20024;-67
2021/08/25 06:13:25;;;;;;;14.75;6.00;;;;;;;;;;5081732;28;20028;-67
2021/08/25 06:15:51;;;;;;;10.85;5.85;;;;;;;;;;5084415;28;20040;-67
2021/08/25 06:18:17;;;;;;;9.82;6.07;;;;;;;;;;5088838;28;20023;-67
2021/08/25 06:20:43;;;;;;;7.80;5.75;;;;;;;;;;5086154;28;20028;-67
2021/08/25 06:23:09;;;;;;;7.88;5.53;;;;;;;;;;5085305;28;20027;-66
2021/08/25 06:25:35;;;;;;;7.57;5.47;;;;;;;;;;5088227;28;20028;-67
2021/08/25 06:28:02;;;;;;;7.75;5.03;;;;;;;;;;5086297;28;20032;-71
2021/08/25 06:30:28;;;;;;;181.30;20.83;;;;;;;;;;5087747;28;20024;-67
2021/08/25 06:32:54;;;;;;;28.80;6.40;;;;;;;;;;5088836;28;20504;-67
2021/08/25 06:35:21;;;;;;;10.43;5.15;;;;;;;;;;5087935;28;20032;-67
2021/08/25 06:37:48;;;;;;;9.35;5.55;;;;;;;;;;5084746;28;20052;-66
2021/08/25 06:40:15;;;;;;;7.47;5.53;;;;;;;;;;5089569;28;20024;-67
2021/08/25 06:42:42;;;;;;;6.50;5.80;;;;;;;;;;5088656;28;20030;-71
2021/08/25 06:45:09;;;;;;;7.22;5.50;;;;;;;;;;5088955;28;20019;-66
2021/08/25 06:47:36;;;;;;;5.70;5.07;;;;;;;;;;5088234;28;20050;-66
2021/08/25 06:50:02;;;;;;;8.35;5.40;;;;;;;;;;5083869;28;20024;-66
2021/08/25 06:52:28;;;;;;;10.63;5.38;;;;;;;;;;5081432;28;20022;-65
2021/08/25 06:54:54;;;;;;;9.43;5.68;;;;;;;;;;5079058;28;20155;-64
2021/08/25 06:57:20;;;;;;;7.95;5.60;;;;;;;;;;5084111;28;20042;-66
2021/08/25 06:59:46;;;;;;;7.22;5.43;;;;;;;;;;5082663;28;20024;-64
2021/08/25 07:02:12;;;;;;;17.30;5.90;;;;;;;;;;5081427;28;20563;-64
2021/08/25 07:04:45;;;;;;;14.65;5.70;;;;;;;;;;5086493;28;20031;-65
2021/08/25 07:07:13;;;;;;;9.98;5.90;;;;;;;;;;5089757;28;20061;-65
2021/08/25 07:09:39;;;;;;;9.82;5.80;;;;;;;;;;5093092;28;20024;-64
2021/08/25 07:12:05;;;;;;;6.85;5.55;;;;;;;;;;5087372;28;20531;-66
2021/08/25 07:14:31;;;;;;;9.32;5.22;;;;;;;;;;5092403;28;20032;-69
2021/08/25 07:16:57;;;;;;;7.45;5.03;;;;;;;;;;5085162;28;20042;-67
2021/08/25 07:19:23;;;;;;;6.97;5.22;;;;;;;;;;5085190;28;20023;-66
2021/08/25 07:21:50;;;;;;;7.57;5.65;;;;;;;;;;5088931;28;20039;-67
2021/08/25 07:24:16;;;;;;;8.43;5.55;;;;;;;;;;5090993;28;20407;-66
2021/08/25 07:26:42;;;;;;;6.20;5.07;;;;;;;;;;5089647;28;20497;-66
2021/08/25 07:29:08;;;;;;;8.75;5.78;;;;;;;;;;5088979;28;20566;-66
2021/08/25 07:31:35;;;;;;;8.88;4.90;;;;;;;;;;5090638;28;20016;-67
2021/08/25 07:34:01;;;;;;;5.97;4.70;;;;;;;;;;5072458;28;20035;-66
2021/08/25 07:36:28;;;;;;;7.85;5.40;;;;;;;;;;5087508;28;20446;-66
2021/08/25 07:38:54;;;;;;;5.68;4.85;;;;;;;;;;5081508;28;20020;-66
2021/08/25 07:41:20;;;;;;;8.25;4.93;;;;;;;;;;5090140;28;20031;-66
2021/08/25 07:43:46;;;;;;;7.80;5.47;;;;;;;;;;5086711;28;20023;-66
2021/08/25 07:46:12;;;;;;;7.07;5.20;;;;;;;;;;5084922;28;20020;-65
2021/08/25 07:48:39;;;;;;;9.82;5.47;;;;;;;;;;5085101;28;20024;-67
2021/08/25 07:51:11;;;;;;;9.95;5.43;;;;;;;;;;5082045;28;20094;-70
2021/08/25 07:53:37;;;;;;;9.40;5.25;;;;;;;;;;5088489;28;20016;-66
2021/08/25 07:56:05;;;;;;;7.43;4.95;;;;;;;;;;5084057;28;20032;-67
2021/08/25 07:58:31;;;;;;;8.25;5.05;;;;;;;;;;5090757;28;20026;-66
2021/08/25 08:00:57;;;;;;;6.30;5.60;;;;;;;;;;5089028;28;20020;-67
2021/08/25 08:03:23;;;;;;;5.80;5.07;;;;;;;;;;5088089;28;20046;-67
2021/08/25 08:05:50;;;;;;;7.00;5.13;;;;;;;;;;5085337;28;20241;-66
2021/08/25 08:08:17;;;;;;;6.30;5.43;;;;;;;;;;5070517;28;20271;-66
2021/08/25 08:10:43;;;;;;;9.63;5.45;;;;;;;;;;5074235;28;20897;-66
2021/08/25 08:13:10;;;;;;;10.80;5.70;;;;;;;;;;5084391;28;20836;-66
2021/08/25 08:15:37;;;;;;;7.85;5.57;;;;;;;;;;5082901;28;20046;-67
2021/08/25 08:18:10;;;;;;;7.32;5.22;;;;;;;;;;5088677;28;20030;-66
2021/08/25 08:20:37;;;;;;;5.63;5.10;;;;;;;;;;5084921;28;20035;-66
2021/08/25 08:23:03;;;;;;;7.53;5.20;;;;;;;;;;5087537;28;20042;-65
2021/08/25 08:25:29;;;;;;;9.48;5.45;;;;;;;;;;5087404;28;20054;-66
2021/08/25 08:27:55;;;;;;;9.98;5.60;;;;;;;;;;5092988;28;20047;-67
2021/08/25 08:30:22;;;;;;;7.15;5.07;;;;;;;;;;5088084;28;20068;-67
2021/08/25 08:32:49;;;;;;;6.70;5.35;;;;;;;;;;5087549;28;20028;-68
2021/08/25 08:35:15;;;;;;;8.02;5.40;;;;;;;;;;5091501;28;20032;-69
2021/08/25 08:37:41;;;;;;;11.77;5.95;;;;;;;;;;5091652;28;20015;-65
2021/08/25 08:40:07;;;;;;;9.95;5.95;;;;;;;;;;5090083;28;20031;-66
2021/08/25 08:42:34;;;;;;;8.13;5.68;;;;;;;;;;5093466;28;20023;-67
2021/08/25 08:45:02;;;;;;;9.65;5.75;;;;;;;;;;5087313;28;20024;-66
2021/08/25 08:47:29;;;;;;;8.27;5.50;;;;;;;;;;5090686;28;20020;-67
2021/08/25 08:49:56;;;;;;;8.95;5.57;;;;;;;;;;5089845;28;20020;-67
2021/08/25 08:52:23;;;;;;;7.90;5.40;;;;;;;;;;5088876;28;20034;-66
2021/08/25 08:54:50;;;;;;;7.50;5.32;;;;;;;;;;5087524;28;20070;-67
2021/08/25 08:57:16;;;;;;;9.98;5.90;;;;;;;;;;5091603;28;20024;-66
2021/08/25 08:59:43;;;;;;;10.52;6.07;;;;;;;;;;5087547;28;20027;-68
2021/08/25 09:02:10;;;;;;;13.55;6.40;;;;;;;;;;5088293;28;20519;-66
2021/08/25 09:04:37;;;;;;;10.85;5.53;;;;;;;;;;5090811;28;20376;-66
2021/08/25 09:07:04;;;;;;;6.82;5.70;;;;;;;;;;5086087;28;20032;-65
2021/08/25 09:09:50;;;;;;;8.98;5.85;;;;;;;;;;5084834;28;21522;-65
2021/08/25 09:12:16;;;;;;;8.82;5.93;;;;;;;;;;5085227;28;20016;-64
2021/08/25 09:14:42;;;;;;;8.80;5.68;;;;;;;;;;5087786;28;20089;-66
2021/08/25 09:17:08;;;;;;;7.75;6.05;;;;;;;;;;5093174;28;20036;-66
2021/08/25 09:19:35;;;;;;;8.75;5.05;;;;;;;;;;5091768;28;20020;-65
2021/08/25 09:22:02;;;;;;;9.05;5.30;;;;;;;;;;5090975;28;20030;-66
2021/08/25 09:24:39;;;;;;;11.13;5.90;;;;;;;;;;5091295;28;20016;-66
2021/08/25 09:27:16;;;;;;;6.15;5.28;;;;;;;;;;5074907;28;20020;-65
2021/08/25 09:29:43;;;;;;;8.65;5.53;;;;;;;;;;5091044;28;20051;-66
2021/08/25 09:32:17;;;;;;;6.72;5.00;;;;;;;;;;5092892;28;20112;-66
2021/08/25 09:34:43;;;;;;;11.93;5.85;;;;;;;;;;5092408;28;20629;-67
2021/08/25 09:37:15;;;;;;;6.78;5.15;;;;;;;;;;5089730;28;20024;-66
2021/08/25 09:39:45;;;;;;;8.38;4.95;;;;;;;;;;5088214;28;20031;-66
2021/08/25 09:42:12;;;;;;;12.40;6.10;;;;;;;;;;5086866;28;20773;-66
2021/08/25 09:44:38;;;;;;;11.68;5.68;;;;;;;;;;5087132;28;20563;-65
2021/08/25 09:47:04;;;;;;;7.43;5.68;;;;;;;;;;5088231;28;20040;-65
2021/08/25 09:49:31;;;;;;;44.33;6.50;;;;;;;;;;5082303;28;20502;-66
2021/08/25 09:51:57;;;;;;;9.70;5.68;;;;;;;;;;5092785;28;20042;-66
2021/08/25 09:54:23;;;;;;;6.78;5.32;;;;;;;;;;5086495;28;20043;-69
2021/08/25 09:56:54;;;;;;;11.52;5.80;;;;;;;;;;5088215;28;20554;-70
2021/08/25 09:59:21;;;;;;;10.00;5.50;;;;;;;;;;5086268;28;20446;-70
2021/08/25 10:01:49;;;;;;;8.38;5.30;;;;;;;;;;5084870;28;20482;-71
2021/08/25 10:04:15;;;;;;;6.20;5.13;;;;;;;;;;5091537;28;20146;-70
2021/08/25 10:06:46;;;;;;;6.13;5.53;;;;;;;;;;5090271;28;20380;-72
2021/08/25 10:09:12;;;;;;;;;;;;;;;;;;5087116;28;20031;-69
2021/08/25 10:11:46;;;;;;;7.07;5.38;;;;;;;;;;5085677;28;19916;-70
2021/08/25 10:14:16;;;;;;;11.10;5.10;;;;;;;;;;5091381;28;20380;-69
2021/08/25 10:16:43;;;;;;;7.05;5.20;;;;;;;;;;5085241;28;20038;-69
2021/08/25 10:19:37;;;;;;;6.72;5.30;;;;;;;;;;5090033;28;20032;-70
2021/08/25 10:22:15;;;;;;;10.38;5.90;;;;;;;;;;5088086;28;20589;-68
2021/08/25 10:24:56;;;;;;;10.98;6.43;;;;;;;;;;5088754;28;20046;-68
2021/08/25 10:27:22;;;;;;;;;;;;;;;;;;5088643;28;20687;-68
2021/08/25 10:30:07;;;;;;;8.50;5.68;;;;;;;;;;5084368;28;19912;-67
2021/08/25 10:32:35;;;;;;;8.10;5.60;;;;;;;;;;5088771;28;20403;-69
2021/08/25 10:35:16;;;;;;;9.55;5.80;;;;;;;;;;5089696;28;20785;-69
2021/08/25 10:37:44;;;;;;;8.77;5.47;;;;;;;;;;5087872;28;20022;-70
2021/08/25 10:40:10;;;;;;;8.68;5.53;;;;;;;;;;5094299;28;20032;-69
2021/08/25 10:43:01;;;;;;;8.38;5.57;;;;;;;;;;5093948;28;20099;-68
2021/08/25 10:45:39;;;;;;;8.52;5.60;;;;;;;;;;5087154;28;20024;-69
2021/08/25 10:48:09;;;;;;;13.38;6.00;;;;;;;;;;5090652;28;20084;-69
2021/08/25 10:50:48;;;;;;;10.88;5.47;;;;;;;;;;5093047;28;20035;-67
2021/08/25 10:53:32;;;;;;;7.07;4.90;;;;;;;;;;5094946;28;20027;-67
2021/08/25 10:56:07;;;;;;;8.25;5.30;;;;;;;;;;5089169;28;20043;-67
2021/08/25 10:58:43;;;;;;;6.40;4.80;;;;;;;;;;5097866;28;20027;-67
2021/08/25 11:01:31;;;;;;;6.00;5.15;;;;;;;;;;5090457;28;20030;-67
2021/08/25 11:03:58;;;;;;;9.57;5.55;;;;;;;;;;5080369;28;20016;-67
2021/08/25 11:06:28;;;;;;;9.10;5.60;;;;;;;;;;5090027;28;20077;-68
2021/08/25 11:09:09;;;;;;;8.80;5.25;;;;;;;;;;5088784;28;20080;-67
2021/08/25 11:11:35;;;;;;;8.75;5.43;;;;;;;;;;5089270;28;20024;-67
2021/08/25 11:14:01;;;;;;;6.35;5.15;;;;;;;;;;5091345;28;20040;-67
2021/08/25 11:16:27;;;;;;;7.55;5.53;;;;;;;;;;5092848;28;20020;-68
2021/08/25 11:18:53;;;;;;;8.07;5.53;;;;;;;;;;5091082;28;20047;-70
2021/08/25 11:21:19;;;;;;;6.65;5.25;;;;;;;;;;5086247;28;20036;-68
2021/08/25 11:23:56;;;;;;;9.25;5.90;;;;;;;;;;5095363;28;20016;-68
2021/08/25 11:26:22;;;;;;;10.35;5.70;;;;;;;;;;5076559;28;20070;-70
2021/08/25 11:28:48;;;;;;;8.25;5.88;;;;;;;;;;5091438;28;20039;-68
2021/08/25 11:31:15;;;;;;;8.75;5.68;;;;;;;;;;5092991;28;20020;-68
2021/08/25 11:33:45;;;;;;;7.35;5.40;;;;;;;;;;5093275;28;20024;-68
2021/08/25 11:36:11;;;;;;;9.60;5.70;;;;;;;;;;5093283;28;20355;-69
2021/08/25 11:38:37;;;;;;;7.32;6.10;;;;;;;;;;5094144;28;20912;-69
2021/08/25 11:41:04;;;;;;;8.25;5.75;;;;;;;;;;5092012;28;20032;-70
2021/08/25 11:43:30;;;;;;;7.35;5.90;;;;;;;;;;5091408;28;20023;-68
2021/08/25 11:45:56;;;;;;;8.48;5.55;;;;;;;;;;5090958;28;20032;-69
2021/08/25 11:48:26;;;;;;;8.18;5.78;;;;;;;;;;5090200;28;20016;-71
2021/08/25 11:50:53;;;;;;;7.50;5.40;;;;;;;;;;5091043;28;20742;-69
2021/08/25 11:53:20;;;;;;;5.20;4.70;;;;;;;;;;5091185;28;20027;-67
2021/08/25 11:55:47;;;;;;;8.88;5.32;;;;;;;;;;5093305;28;20060;-67
2021/08/25 11:58:34;;;;;;;7.28;5.22;;;;;;;;;;5089759;28;20108;-67
2021/08/25 12:01:01;;;;;;;8.00;5.35;;;;;;;;;;5091533;28;20164;-68
2021/08/25 12:03:40;;;;;;;6.75;5.20;;;;;;;;;;5086244;28;20465;-67
2021/08/25 12:06:06;;;;;;;8.05;5.90;;;;;;;;;;5088506;28;20027;-68
2021/08/25 12:08:39;;;;;;;9.18;5.45;;;;;;;;;;5092584;28;20032;-69
2021/08/25 12:11:06;;;;;;;6.72;5.15;;;;;;;;;;5086468;28;20028;-67
2021/08/25 12:13:34;;;;;;;6.95;5.78;;;;;;;;;;5084072;28;20040;-68
2021/08/25 12:16:00;;;;;;;11.60;5.70;;;;;;;;;;5086910;28;20040;-68
2021/08/25 12:18:27;;;;;;;6.53;5.63;;;;;;;;;;5087866;28;20092;-69
2021/08/25 12:20:55;;;;;;;7.57;6.03;;;;;;;;;;5084483;28;20036;-68
2021/08/25 12:23:23;;;;;;;8.35;5.85;;;;;;;;;;5084475;28;20028;-68
2021/08/25 12:25:49;;;;;;;10.43;6.20;;;;;;;;;;5085616;28;20042;-68
2021/08/25 12:28:16;;;;;;;10.32;5.78;;;;;;;;;;5085460;28;20024;-67
2021/08/25 12:30:43;;;;;;;8.75;6.13;;;;;;;;;;5088577;28;20055;-67
2021/08/25 12:33:11;;;;;;;9.43;5.88;;;;;;;;;;5086590;28;20028;-69
2021/08/25 12:35:38;;;;;;;7.53;6.32;;;;;;;;;;5085341;28;20036;-67
2021/08/25 12:38:06;;;;;;;7.90;6.10;;;;;;;;;;5086058;28;20526;-67
2021/08/25 12:40:33;;;;;;;8.93;6.45;;;;;;;;;;5083861;28;20040;-67
2021/08/25 12:42:59;;;;;;;7.88;5.95;;;;;;;;;;5085149;28;20032;-68
2021/08/25 12:45:26;;;;;;;10.85;6.20;;;;;;;;;;5082612;28;20106;-70
2021/08/25 12:47:55;;;;;;;9.55;5.97;;;;;;;;;;5086626;28;20024;-68
2021/08/25 12:50:22;;;;;;;9.68;6.38;;;;;;;;;;5084306;28;20032;-69
2021/08/25 12:52:50;;;;;;;6.78;5.70;;;;;;;;;;5085322;28;20585;-68
2021/08/25 12:55:16;;;;;;;7.28;5.72;;;;;;;;;;5084226;28;20056;-67
2021/08/25 12:57:43;;;;;;;10.35;5.72;;;;;;;;;;5081920;28;20472;-69
2021/08/25 13:00:10;;;;;;;6.20;5.60;;;;;;;;;;5083042;28;20032;-68
2021/08/25 13:02:40;;;;;;;9.57;6.13;;;;;;;;;;5081085;28;20528;-68
2021/08/25 13:05:06;;;;;;;7.07;5.03;;;;;;;;;;5080229;28;20032;-68
2021/08/25 13:07:32;;;;;;;10.00;5.57;;;;;;;;;;5080333;28;20055;-67
2021/08/25 13:09:59;;;;;;;7.35;5.03;;;;;;;;;;5078179;28;20039;-68
2021/08/25 13:12:25;;;;;;;6.43;5.53;;;;;;;;;;5080482;28;20028;-69
2021/08/25 13:14:51;;;;;;;10.45;6.05;;;;;;;;;;5079955;28;20032;-67
2021/08/25 13:17:17;;;;;;;6.30;5.25;;;;;;;;;;5079376;28;20032;-67
2021/08/25 13:19:43;;;;;;;6.00;5.35;;;;;;;;;;5062705;28;20027;-67
2021/08/25 13:22:10;;;;;;;9.70;5.40;;;;;;;;;;5080799;28;20032;-68
2021/08/25 13:24:36;;;;;;;10.07;6.03;;;;;;;;;;5079600;28;20028;-68
2021/08/25 13:27:02;;;;;;;8.02;6.03;;;;;;;;;;5084341;28;20480;-67
2021/08/25 13:29:28;;;;;;;8.57;6.05;;;;;;;;;;5080390;28;20030;-67
2021/08/25 13:31:54;;;;;;;10.25;6.20;;;;;;;;;;5083035;28;20242;-68
2021/08/25 13:34:21;;;;;;;8.00;5.97;;;;;;;;;;5082109;28;20138;-67
2021/08/25 13:36:47;;;;;;;6.03;5.43;;;;;;;;;;5084477;28;20685;-67
2021/08/25 13:39:13;;;;;;;9.13;6.00;;;;;;;;;;5078923;28;20779;-68
2021/08/25 13:41:39;;;;;;;8.82;6.63;;;;;;;;;;5081558;28;20032;-67
2021/08/25 13:44:05;;;;;;;9.70;5.68;;;;;;;;;;5077354;28;20424;-68
2021/08/25 13:46:32;;;;;;;8.38;6.60;;;;;;;;;;5080453;28;20019;-68
2021/08/25 13:48:59;;;;;;;8.77;6.35;;;;;;;;;;5081713;28;20110;-68
2021/08/25 13:51:25;;;;;;;6.60;5.78;;;;;;;;;;5078445;28;20016;-67
2021/08/25 13:53:52;;;;;;;8.77;6.18;;;;;;;;;;5083933;28;20479;-68
2021/08/25 13:56:18;;;;;;;7.43;5.95;;;;;;;;;;5081692;28;20043;-68
2021/08/25 13:58:44;;;;;;;8.32;6.43;;;;;;;;;;5080546;28;20024;-72
2021/08/25 14:01:10;;;;;;;9.13;6.22;;;;;;;;;;5081296;28;20024;-67
2021/08/25 14:03:37;;;;;;;9.70;6.32;;;;;;;;;;5080438;28;20016;-69
2021/08/25 14:06:03;;;;;;;6.55;5.70;;;;;;;;;;5080639;28;20104;-68
2021/08/25 14:08:29;;;;;;;7.97;6.05;;;;;;;;;;5083119;28;20019;-69
2021/08/25 14:10:55;;;;;;;8.10;6.25;;;;;;;;;;5081627;28;20070;-68
2021/08/25 14:13:21;;;;;;;10.68;6.43;;;;;;;;;;5089201;28;20023;-68
2021/08/25 14:15:47;;;;;;;7.60;5.97;;;;;;;;;;5084794;28;20532;-69
2021/08/25 14:18:14;;;;;;;7.85;6.13;;;;;;;;;;5087999;28;20077;-68
2021/08/25 14:20:40;;;;;;;10.27;6.90;;;;;;;;;;5085872;28;20425;-68
2021/08/25 14:23:06;;;;;;;7.35;6.30;;;;;;;;;;5073075;28;20056;-69
2021/08/25 14:25:32;;;;;;;8.10;6.80;;;;;;;;;;5074788;28;20035;-68
2021/08/25 14:27:58;;;;;;;8.07;6.47;;;;;;;;;;5084738;28;20024;-69
2021/08/25 14:30:25;;;;;;;7.57;5.65;;;;;;;;;;5091147;28;20119;-69
2021/08/25 14:32:51;;;;;;;9.93;6.63;;;;;;;;;;5088168;28;20020;-69
2021/08/25 14:35:17;;;;;;;8.68;6.88;;;;;;;;;;5091069;28;20085;-68
2021/08/25 14:37:43;;;;;;;9.23;6.32;;;;;;;;;;5084697;28;20028;-68
2021/08/25 14:40:09;;;;;;;10.07;6.20;;;;;;;;;;5091759;28;20122;-68
2021/08/25 14:42:36;;;;;;;8.20;6.45;;;;;;;;;;5085638;28;20553;-69